Arbuckle, West Virginia
Current Conditions -  °F | °C
As of 9:55 AM on Saturday 01 Nov 2014 (Local Time) from K3I2 Reporting Station
Light Rain Light Rain  
Wind Chill: 42°   Ceiling: 1200
Heat Index: 45°   Visibility: 10mi
Dew Point: 43°   Wind: 5mph
Humidity: 93%   Direction: 320°NW
Pressure: 30.05"   Gusts: NA
Location:  38.7463°N, 81.8897°W
Report Text: K3I2 011355Z AUTO 32004KT 10SM -RA SCT007 BKN012 OVC025 07/06 A3005 RMK AO2
Loading
Personal Weather Stations






























Interactive Weather Map
Tropical Storm Tracking
New forecast layout! Learn more

10-Day Weather Forecast

Advertisements
Track Severe Weather on mobile